sensor_id;sensor_type;location;lat;lon;timestamp;P1;durP1;ratioP1;P2;durP2;ratioP2
31438;SDS011;18062;48.872;9.220;2022-12-31T00:00:14;0.30;;;0.30;;
31438;SDS011;18062;48.872;9.220;2022-12-31T00:02:40;0.20;;;0.20;;
31438;SDS011;18062;48.872;9.220;2022-12-31T00:05:06;0.30;;;0.30;;
31438;SDS011;18062;48.872;9.220;2022-12-31T00:07:33;0.20;;;0.20;;
31438;SDS011;18062;48.872;9.220;2022-12-31T00:09:59;0.30;;;0.30;;
31438;SDS011;18062;48.872;9.220;2022-12-31T00:12:25;0.53;;;0.40;;
31438;SDS011;18062;48.872;9.220;2022-12-31T00:14:51;0.70;;;0.40;;
31438;SDS011;18062;48.872;9.220;2022-12-31T00:17:17;0.40;;;0.40;;
31438;SDS011;18062;48.872;9.220;2022-12-31T00:19:43;0.37;;;0.33;;
31438;SDS011;18062;48.872;9.220;2022-12-31T00:22:09;0.43;;;0.43;;
31438;SDS011;18062;48.872;9.220;2022-12-31T00:24:35;0.30;;;0.30;;
31438;SDS011;18062;48.872;9.220;2022-12-31T00:27:01;0.40;;;0.40;;
31438;SDS011;18062;48.872;9.220;2022-12-31T00:29:27;0.33;;;0.33;;
31438;SDS011;18062;48.872;9.220;2022-12-31T00:31:53;0.37;;;0.37;;
31438;SDS011;18062;48.872;9.220;2022-12-31T00:34:19;0.30;;;0.30;;
31438;SDS011;18062;48.872;9.220;2022-12-31T00:36:45;0.20;;;0.20;;
31438;SDS011;18062;48.872;9.220;2022-12-31T00:39:11;0.30;;;0.30;;
31438;SDS011;18062;48.872;9.220;2022-12-31T00:41:37;0.40;;;0.40;;
31438;SDS011;18062;48.872;9.220;2022-12-31T00:44:04;0.40;;;0.40;;
31438;SDS011;18062;48.872;9.220;2022-12-31T00:46:30;0.30;;;0.30;;
31438;SDS011;18062;48.872;9.220;2022-12-31T00:48:56;0.40;;;0.40;;
31438;SDS011;18062;48.872;9.220;2022-12-31T00:51:22;0.50;;;0.50;;
31438;SDS011;18062;48.872;9.220;2022-12-31T00:53:51;0.40;;;0.40;;
31438;SDS011;18062;48.872;9.220;2022-12-31T00:56:20;0.43;;;0.43;;
31438;SDS011;18062;48.872;9.220;2022-12-31T00:58:47;0.37;;;0.37;;
31438;SDS011;18062;48.872;9.220;2022-12-31T01:03:45;0.30;;;0.30;;
31438;SDS011;18062;48.872;9.220;2022-12-31T01:06:11;0.40;;;0.40;;
31438;SDS011;18062;48.872;9.220;2022-12-31T01:08:37;0.43;;;0.40;;
31438;SDS011;18062;48.872;9.220;2022-12-31T01:11:03;0.40;;;0.40;;
31438;SDS011;18062;48.872;9.220;2022-12-31T01:13:55;0.30;;;0.30;;
31438;SDS011;18062;48.872;9.220;2022-12-31T01:16:23;0.30;;;0.30;;
31438;SDS011;18062;48.872;9.220;2022-12-31T01:18:49;0.30;;;0.30;;
31438;SDS011;18062;48.872;9.220;2022-12-31T01:21:15;0.20;;;0.20;;
31438;SDS011;18062;48.872;9.220;2022-12-31T01:23:42;0.37;;;0.37;;
31438;SDS011;18062;48.872;9.220;2022-12-31T01:26:09;0.40;;;0.40;;
31438;SDS011;18062;48.872;9.220;2022-12-31T01:28:36;0.63;;;0.63;;
31438;SDS011;18062;48.872;9.220;2022-12-31T01:31:06;0.50;;;0.50;;
31438;SDS011;18062;48.872;9.220;2022-12-31T01:33:32;0.40;;;0.40;;
31438;SDS011;18062;48.872;9.220;2022-12-31T01:36:03;0.30;;;0.30;;
31438;SDS011;18062;48.872;9.220;2022-12-31T01:38:29;0.50;;;0.50;;
31438;SDS011;18062;48.872;9.220;2022-12-31T01:40:55;0.47;;;0.47;;
31438;SDS011;18062;48.872;9.220;2022-12-31T01:43:21;0.30;;;0.30;;
31438;SDS011;18062;48.872;9.220;2022-12-31T01:45:51;0.37;;;0.37;;
31438;SDS011;18062;48.872;9.220;2022-12-31T01:48:23;0.40;;;0.40;;
31438;SDS011;18062;48.872;9.220;2022-12-31T01:50:51;0.30;;;0.30;;
31438;SDS011;18062;48.872;9.220;2022-12-31T01:53:17;0.30;;;0.30;;
31438;SDS011;18062;48.872;9.220;2022-12-31T01:55:45;0.40;;;0.40;;
31438;SDS011;18062;48.872;9.220;2022-12-31T01:58:16;0.40;;;0.40;;
31438;SDS011;18062;48.872;9.220;2022-12-31T02:00:43;0.40;;;0.40;;
31438;SDS011;18062;48.872;9.220;2022-12-31T02:03:09;0.50;;;0.50;;
31438;SDS011;18062;48.872;9.220;2022-12-31T02:05:45;0.20;;;0.20;;
31438;SDS011;18062;48.872;9.220;2022-12-31T02:08:11;0.40;;;0.40;;
31438;SDS011;18062;48.872;9.220;2022-12-31T02:10:37;0.40;;;0.40;;
31438;SDS011;18062;48.872;9.220;2022-12-31T02:13:03;0.40;;;0.40;;
31438;SDS011;18062;48.872;9.220;2022-12-31T02:18:09;0.30;;;0.30;;
31438;SDS011;18062;48.872;9.220;2022-12-31T02:20:53;0.30;;;0.30;;
31438;SDS011;18062;48.872;9.220;2022-12-31T02:26:29;0.30;;;0.30;;
31438;SDS011;18062;48.872;9.220;2022-12-31T02:34:07;0.30;;;0.30;;
31438;SDS011;18062;48.872;9.220;2022-12-31T02:36:42;0.30;;;0.30;;
31438;SDS011;18062;48.872;9.220;2022-12-31T02:39:09;0.30;;;0.30;;
31438;SDS011;18062;48.872;9.220;2022-12-31T02:41:36;0.30;;;0.30;;
31438;SDS011;18062;48.872;9.220;2022-12-31T02:44:27;0.40;;;0.40;;
31438;SDS011;18062;48.872;9.220;2022-12-31T02:49:41;0.30;;;0.30;;
31438;SDS011;18062;48.872;9.220;2022-12-31T02:55:18;0.40;;;0.40;;
31438;SDS011;18062;48.872;9.220;2022-12-31T02:57:47;0.30;;;0.30;;
31438;SDS011;18062;48.872;9.220;2022-12-31T03:00:16;0.30;;;0.30;;
31438;SDS011;18062;48.872;9.220;2022-12-31T03:03:01;0.37;;;0.37;;
31438;SDS011;18062;48.872;9.220;2022-12-31T03:05:29;0.40;;;0.40;;
31438;SDS011;18062;48.872;9.220;2022-12-31T03:07:56;0.30;;;0.30;;
31438;SDS011;18062;48.872;9.220;2022-12-31T03:10:22;1.40;;;0.70;;
31438;SDS011;18062;48.872;9.220;2022-12-31T03:12:48;0.23;;;0.23;;
31438;SDS011;18062;48.872;9.220;2022-12-31T03:20:33;0.37;;;0.37;;
31438;SDS011;18062;48.872;9.220;2022-12-31T03:23:19;1.03;;;0.50;;
31438;SDS011;18062;48.872;9.220;2022-12-31T03:25:45;0.40;;;0.40;;
31438;SDS011;18062;48.872;9.220;2022-12-31T03:28:16;0.30;;;0.30;;
31438;SDS011;18062;48.872;9.220;2022-12-31T03:30:44;0.23;;;0.23;;
31438;SDS011;18062;48.872;9.220;2022-12-31T03:33:10;0.40;;;0.40;;
31438;SDS011;18062;48.872;9.220;2022-12-31T03:35:37;0.50;;;0.50;;
31438;SDS011;18062;48.872;9.220;2022-12-31T03:38:03;0.27;;;0.27;;
31438;SDS011;18062;48.872;9.220;2022-12-31T03:40:30;0.27;;;0.27;;
31438;SDS011;18062;48.872;9.220;2022-12-31T03:42:56;0.30;;;0.30;;
31438;SDS011;18062;48.872;9.220;2022-12-31T03:45:22;0.40;;;0.40;;
31438;SDS011;18062;48.872;9.220;2022-12-31T03:47:48;0.40;;;0.40;;
31438;SDS011;18062;48.872;9.220;2022-12-31T03:50:16;0.40;;;0.40;;
31438;SDS011;18062;48.872;9.220;2022-12-31T03:52:42;0.37;;;0.37;;
31438;SDS011;18062;48.872;9.220;2022-12-31T03:55:09;0.40;;;0.40;;
31438;SDS011;18062;48.872;9.220;2022-12-31T03:57:35;0.33;;;0.33;;
31438;SDS011;18062;48.872;9.220;2022-12-31T04:00:01;0.40;;;0.40;;
31438;SDS011;18062;48.872;9.220;2022-12-31T04:02:27;0.30;;;0.30;;
31438;SDS011;18062;48.872;9.220;2022-12-31T04:04:53;0.27;;;0.27;;
31438;SDS011;18062;48.872;9.220;2022-12-31T04:07:19;0.47;;;0.47;;
31438;SDS011;18062;48.872;9.220;2022-12-31T04:09:45;0.43;;;0.43;;
31438;SDS011;18062;48.872;9.220;2022-12-31T04:12:11;0.40;;;0.40;;
31438;SDS011;18062;48.872;9.220;2022-12-31T04:14:37;0.30;;;0.30;;
31438;SDS011;18062;48.872;9.220;2022-12-31T04:17:03;0.40;;;0.40;;
31438;SDS011;18062;48.872;9.220;2022-12-31T04:19:29;0.37;;;0.37;;
31438;SDS011;18062;48.872;9.220;2022-12-31T04:21:55;0.30;;;0.30;;
31438;SDS011;18062;48.872;9.220;2022-12-31T04:24:21;0.40;;;0.40;;
31438;SDS011;18062;48.872;9.220;2022-12-31T04:26:47;0.40;;;0.40;;
31438;SDS011;18062;48.872;9.220;2022-12-31T04:29:13;0.50;;;0.50;;
31438;SDS011;18062;48.872;9.220;2022-12-31T04:31:39;0.40;;;0.40;;
31438;SDS011;18062;48.872;9.220;2022-12-31T04:34:05;0.30;;;0.30;;
31438;SDS011;18062;48.872;9.220;2022-12-31T04:36:31;0.40;;;0.40;;
31438;SDS011;18062;48.872;9.220;2022-12-31T04:38:57;0.40;;;0.40;;
31438;SDS011;18062;48.872;9.220;2022-12-31T04:41:23;0.30;;;0.30;;
31438;SDS011;18062;48.872;9.220;2022-12-31T04:43:54;0.40;;;0.40;;
31438;SDS011;18062;48.872;9.220;2022-12-31T04:46:21;0.40;;;0.33;;
31438;SDS011;18062;48.872;9.220;2022-12-31T04:48:47;0.30;;;0.30;;
31438;SDS011;18062;48.872;9.220;2022-12-31T04:51:13;0.43;;;0.43;;
31438;SDS011;18062;48.872;9.220;2022-12-31T04:53:39;0.60;;;0.43;;
31438;SDS011;18062;48.872;9.220;2022-12-31T04:56:06;0.40;;;0.40;;
31438;SDS011;18062;48.872;9.220;2022-12-31T04:58:32;0.40;;;0.40;;
31438;SDS011;18062;48.872;9.220;2022-12-31T05:00:58;0.30;;;0.30;;
31438;SDS011;18062;48.872;9.220;2022-12-31T05:03:25;0.40;;;0.40;;
31438;SDS011;18062;48.872;9.220;2022-12-31T05:05:51;0.50;;;0.50;;
31438;SDS011;18062;48.872;9.220;2022-12-31T05:08:17;0.40;;;0.40;;
31438;SDS011;18062;48.872;9.220;2022-12-31T05:10:44;0.37;;;0.37;;
31438;SDS011;18062;48.872;9.220;2022-12-31T05:13:10;0.40;;;0.40;;
31438;SDS011;18062;48.872;9.220;2022-12-31T05:15:37;0.40;;;0.40;;
31438;SDS011;18062;48.872;9.220;2022-12-31T05:18:03;0.20;;;0.20;;
31438;SDS011;18062;48.872;9.220;2022-12-31T05:20:29;0.40;;;0.40;;
31438;SDS011;18062;48.872;9.220;2022-12-31T05:22:55;0.40;;;0.40;;
31438;SDS011;18062;48.872;9.220;2022-12-31T05:25:21;0.23;;;0.23;;
31438;SDS011;18062;48.872;9.220;2022-12-31T05:27:47;0.40;;;0.40;;
31438;SDS011;18062;48.872;9.220;2022-12-31T05:30:13;0.20;;;0.20;;
31438;SDS011;18062;48.872;9.220;2022-12-31T05:32:39;0.30;;;0.30;;
31438;SDS011;18062;48.872;9.220;2022-12-31T05:35:05;0.37;;;0.37;;
31438;SDS011;18062;48.872;9.220;2022-12-31T05:37:31;0.30;;;0.30;;
31438;SDS011;18062;48.872;9.220;2022-12-31T05:39:58;0.40;;;0.40;;
31438;SDS011;18062;48.872;9.220;2022-12-31T05:42:24;0.30;;;0.30;;
31438;SDS011;18062;48.872;9.220;2022-12-31T05:44:50;0.37;;;0.37;;
31438;SDS011;18062;48.872;9.220;2022-12-31T05:47:16;0.40;;;0.30;;
31438;SDS011;18062;48.872;9.220;2022-12-31T05:49:42;0.40;;;0.40;;
31438;SDS011;18062;48.872;9.220;2022-12-31T05:52:08;0.37;;;0.37;;
31438;SDS011;18062;48.872;9.220;2022-12-31T05:54:34;0.33;;;0.33;;
31438;SDS011;18062;48.872;9.220;2022-12-31T05:57:01;0.40;;;0.40;;
31438;SDS011;18062;48.872;9.220;2022-12-31T05:59:27;0.30;;;0.30;;
31438;SDS011;18062;48.872;9.220;2022-12-31T06:01:53;0.40;;;0.40;;
31438;SDS011;18062;48.872;9.220;2022-12-31T06:04:19;0.30;;;0.30;;
31438;SDS011;18062;48.872;9.220;2022-12-31T06:06:45;0.33;;;0.33;;
31438;SDS011;18062;48.872;9.220;2022-12-31T06:09:11;0.40;;;0.40;;
31438;SDS011;18062;48.872;9.220;2022-12-31T06:11:37;0.30;;;0.30;;
31438;SDS011;18062;48.872;9.220;2022-12-31T06:14:03;0.40;;;0.40;;
31438;SDS011;18062;48.872;9.220;2022-12-31T06:16:29;0.33;;;0.33;;
31438;SDS011;18062;48.872;9.220;2022-12-31T06:18:55;0.30;;;0.30;;
31438;SDS011;18062;48.872;9.220;2022-12-31T06:21:21;0.30;;;0.30;;
31438;SDS011;18062;48.872;9.220;2022-12-31T06:23:47;0.40;;;0.40;;
31438;SDS011;18062;48.872;9.220;2022-12-31T06:26:14;0.30;;;0.30;;
31438;SDS011;18062;48.872;9.220;2022-12-31T06:28:40;0.40;;;0.40;;
31438;SDS011;18062;48.872;9.220;2022-12-31T06:31:06;0.40;;;0.40;;
31438;SDS011;18062;48.872;9.220;2022-12-31T06:33:33;0.50;;;0.50;;
31438;SDS011;18062;48.872;9.220;2022-12-31T06:36:00;0.40;;;0.40;;
31438;SDS011;18062;48.872;9.220;2022-12-31T06:38:27;0.40;;;0.40;;
31438;SDS011;18062;48.872;9.220;2022-12-31T06:40:54;0.43;;;0.43;;
31438;SDS011;18062;48.872;9.220;2022-12-31T06:43:20;0.53;;;0.53;;
31438;SDS011;18062;48.872;9.220;2022-12-31T06:45:46;0.40;;;0.40;;
31438;SDS011;18062;48.872;9.220;2022-12-31T06:48:13;0.40;;;0.40;;
31438;SDS011;18062;48.872;9.220;2022-12-31T06:50:39;0.87;;;0.50;;
31438;SDS011;18062;48.872;9.220;2022-12-31T06:53:05;0.50;;;0.50;;
31438;SDS011;18062;48.872;9.220;2022-12-31T06:55:31;0.30;;;0.30;;
31438;SDS011;18062;48.872;9.220;2022-12-31T06:57:58;0.40;;;0.40;;
31438;SDS011;18062;48.872;9.220;2022-12-31T07:00:27;0.30;;;0.30;;
31438;SDS011;18062;48.872;9.220;2022-12-31T07:05:51;0.40;;;0.40;;
31438;SDS011;18062;48.872;9.220;2022-12-31T07:10:57;0.37;;;0.37;;
31438;SDS011;18062;48.872;9.220;2022-12-31T07:18:45;0.33;;;0.33;;
31438;SDS011;18062;48.872;9.220;2022-12-31T07:21:14;0.30;;;0.30;;
31438;SDS011;18062;48.872;9.220;2022-12-31T07:23:40;0.40;;;0.40;;
31438;SDS011;18062;48.872;9.220;2022-12-31T07:28:39;0.30;;;0.30;;
31438;SDS011;18062;48.872;9.220;2022-12-31T07:31:12;0.30;;;0.30;;
31438;SDS011;18062;48.872;9.220;2022-12-31T07:33:43;0.40;;;0.40;;
31438;SDS011;18062;48.872;9.220;2022-12-31T07:38:58;0.33;;;0.33;;
31438;SDS011;18062;48.872;9.220;2022-12-31T07:49:03;0.30;;;0.30;;
31438;SDS011;18062;48.872;9.220;2022-12-31T07:51:29;0.40;;;0.40;;
31438;SDS011;18062;48.872;9.220;2022-12-31T07:53:55;0.40;;;0.40;;
31438;SDS011;18062;48.872;9.220;2022-12-31T07:56:21;0.30;;;0.30;;
31438;SDS011;18062;48.872;9.220;2022-12-31T08:01:14;0.30;;;0.30;;
31438;SDS011;18062;48.872;9.220;2022-12-31T08:06:11;0.30;;;0.30;;
31438;SDS011;18062;48.872;9.220;2022-12-31T08:11:16;0.30;;;0.30;;
31438;SDS011;18062;48.872;9.220;2022-12-31T08:13:43;0.30;;;0.30;;
31438;SDS011;18062;48.872;9.220;2022-12-31T08:16:10;0.40;;;0.40;;
31438;SDS011;18062;48.872;9.220;2022-12-31T08:18:37;0.77;;;0.57;;
31438;SDS011;18062;48.872;9.220;2022-12-31T08:21:17;0.47;;;0.47;;
31438;SDS011;18062;48.872;9.220;2022-12-31T08:26:29;0.33;;;0.33;;
31438;SDS011;18062;48.872;9.220;2022-12-31T08:36:32;0.40;;;0.40;;
31438;SDS011;18062;48.872;9.220;2022-12-31T08:41:47;0.37;;;0.37;;
31438;SDS011;18062;48.872;9.220;2022-12-31T08:44:17;0.33;;;0.33;;
31438;SDS011;18062;48.872;9.220;2022-12-31T08:46:49;0.37;;;0.37;;
31438;SDS011;18062;48.872;9.220;2022-12-31T08:49:19;0.67;;;0.40;;
31438;SDS011;18062;48.872;9.220;2022-12-31T08:51:45;0.47;;;0.40;;
31438;SDS011;18062;48.872;9.220;2022-12-31T08:54:12;0.30;;;0.30;;
31438;SDS011;18062;48.872;9.220;2022-12-31T08:56:44;0.40;;;0.40;;
31438;SDS011;18062;48.872;9.220;2022-12-31T08:59:24;0.20;;;0.20;;
31438;SDS011;18062;48.872;9.220;2022-12-31T09:04:29;0.33;;;0.33;;
31438;SDS011;18062;48.872;9.220;2022-12-31T09:07:00;0.40;;;0.40;;
31438;SDS011;18062;48.872;9.220;2022-12-31T09:12:17;0.30;;;0.30;;
31438;SDS011;18062;48.872;9.220;2022-12-31T09:14:54;0.40;;;0.40;;
31438;SDS011;18062;48.872;9.220;2022-12-31T09:19:48;0.77;;;0.60;;
31438;SDS011;18062;48.872;9.220;2022-12-31T09:22:14;0.40;;;0.40;;
31438;SDS011;18062;48.872;9.220;2022-12-31T09:24:40;0.50;;;0.50;;
31438;SDS011;18062;48.872;9.220;2022-12-31T09:28:09;0.40;;;0.40;;
31438;SDS011;18062;48.872;9.220;2022-12-31T09:37:55;0.30;;;0.30;;
31438;SDS011;18062;48.872;9.220;2022-12-31T09:53:40;0.30;;;0.30;;
31438;SDS011;18062;48.872;9.220;2022-12-31T09:56:25;0.93;;;0.50;;
31438;SDS011;18062;48.872;9.220;2022-12-31T10:09:34;0.40;;;0.40;;
31438;SDS011;18062;48.872;9.220;2022-12-31T10:11:51;0.43;;;0.43;;
31438;SDS011;18062;48.872;9.220;2022-12-31T10:17:04;0.30;;;0.30;;
31438;SDS011;18062;48.872;9.220;2022-12-31T10:22:23;0.30;;;0.30;;
31438;SDS011;18062;48.872;9.220;2022-12-31T10:25:05;0.35;;;0.35;;
31438;SDS011;18062;48.872;9.220;2022-12-31T10:27:36;0.50;;;0.50;;
31438;SDS011;18062;48.872;9.220;2022-12-31T10:30:17;0.40;;;0.40;;
31438;SDS011;18062;48.872;9.220;2022-12-31T10:45:29;0.60;;;0.60;;
31438;SDS011;18062;48.872;9.220;2022-12-31T10:53:36;0.30;;;0.30;;
31438;SDS011;18062;48.872;9.220;2022-12-31T11:03:43;0.50;;;0.50;;
31438;SDS011;18062;48.872;9.220;2022-12-31T11:14:55;0.30;;;0.30;;
31438;SDS011;18062;48.872;9.220;2022-12-31T11:22:25;0.40;;;0.40;;
31438;SDS011;18062;48.872;9.220;2022-12-31T11:33:19;0.47;;;0.47;;
31438;SDS011;18062;48.872;9.220;2022-12-31T11:40:38;0.30;;;0.30;;
31438;SDS011;18062;48.872;9.220;2022-12-31T11:56:23;0.30;;;0.30;;
31438;SDS011;18062;48.872;9.220;2022-12-31T11:58:51;0.30;;;0.30;;
31438;SDS011;18062;48.872;9.220;2022-12-31T12:01:19;0.30;;;0.30;;
31438;SDS011;18062;48.872;9.220;2022-12-31T12:03:46;0.37;;;0.37;;
31438;SDS011;18062;48.872;9.220;2022-12-31T12:06:14;0.30;;;0.30;;
31438;SDS011;18062;48.872;9.220;2022-12-31T12:08:41;0.30;;;0.30;;
31438;SDS011;18062;48.872;9.220;2022-12-31T12:11:12;0.80;;;0.67;;
31438;SDS011;18062;48.872;9.220;2022-12-31T12:13:38;0.60;;;0.57;;
31438;SDS011;18062;48.872;9.220;2022-12-31T12:16:05;0.50;;;0.50;;
31438;SDS011;18062;48.872;9.220;2022-12-31T12:18:38;0.50;;;0.50;;
31438;SDS011;18062;48.872;9.220;2022-12-31T12:21:05;0.50;;;0.50;;
31438;SDS011;18062;48.872;9.220;2022-12-31T12:23:32;0.50;;;0.50;;
31438;SDS011;18062;48.872;9.220;2022-12-31T12:25:58;0.47;;;0.47;;
31438;SDS011;18062;48.872;9.220;2022-12-31T12:28:29;0.40;;;0.40;;
31438;SDS011;18062;48.872;9.220;2022-12-31T12:30:59;0.30;;;0.30;;
31438;SDS011;18062;48.872;9.220;2022-12-31T12:33:26;3.53;;;2.60;;
31438;SDS011;18062;48.872;9.220;2022-12-31T12:35:53;0.40;;;0.40;;
31438;SDS011;18062;48.872;9.220;2022-12-31T12:38:30;0.83;;;0.60;;
31438;SDS011;18062;48.872;9.220;2022-12-31T12:40:58;0.60;;;0.60;;
31438;SDS011;18062;48.872;9.220;2022-12-31T12:43:26;0.60;;;0.60;;
31438;SDS011;18062;48.872;9.220;2022-12-31T12:45:55;0.30;;;0.30;;
31438;SDS011;18062;48.872;9.220;2022-12-31T12:50:49;0.40;;;0.40;;
31438;SDS011;18062;48.872;9.220;2022-12-31T12:53:32;0.50;;;0.50;;
31438;SDS011;18062;48.872;9.220;2022-12-31T13:04:09;0.80;;;0.80;;
31438;SDS011;18062;48.872;9.220;2022-12-31T13:11:55;0.83;;;0.60;;
31438;SDS011;18062;48.872;9.220;2022-12-31T13:14:26;0.90;;;0.53;;
31438;SDS011;18062;48.872;9.220;2022-12-31T13:19:42;0.70;;;0.40;;
31438;SDS011;18062;48.872;9.220;2022-12-31T13:27:32;0.50;;;0.50;;
31438;SDS011;18062;48.872;9.220;2022-12-31T13:30:03;0.30;;;0.30;;
31438;SDS011;18062;48.872;9.220;2022-12-31T13:32:38;0.43;;;0.43;;
31438;SDS011;18062;48.872;9.220;2022-12-31T13:37:53;0.33;;;0.30;;
31438;SDS011;18062;48.872;9.220;2022-12-31T13:40:29;0.40;;;0.40;;
31438;SDS011;18062;48.872;9.220;2022-12-31T13:43:02;0.37;;;0.37;;
31438;SDS011;18062;48.872;9.220;2022-12-31T13:45:30;0.30;;;0.30;;
31438;SDS011;18062;48.872;9.220;2022-12-31T13:48:17;0.40;;;0.40;;
31438;SDS011;18062;48.872;9.220;2022-12-31T13:50:56;0.30;;;0.30;;
31438;SDS011;18062;48.872;9.220;2022-12-31T13:53:31;0.97;;;0.40;;
31438;SDS011;18062;48.872;9.220;2022-12-31T13:56:01;0.30;;;0.30;;
31438;SDS011;18062;48.872;9.220;2022-12-31T13:58:36;0.40;;;0.40;;
31438;SDS011;18062;48.872;9.220;2022-12-31T14:01:15;0.40;;;0.40;;
31438;SDS011;18062;48.872;9.220;2022-12-31T14:03:46;0.90;;;0.40;;
31438;SDS011;18062;48.872;9.220;2022-12-31T14:06:24;7.33;;;5.47;;
31438;SDS011;18062;48.872;9.220;2022-12-31T14:08:51;1.20;;;1.10;;
31438;SDS011;18062;48.872;9.220;2022-12-31T14:16:34;0.40;;;0.40;;
31438;SDS011;18062;48.872;9.220;2022-12-31T14:24:22;0.20;;;0.20;;
31438;SDS011;18062;48.872;9.220;2022-12-31T14:26:54;0.30;;;0.30;;
31438;SDS011;18062;48.872;9.220;2022-12-31T14:29:25;0.37;;;0.37;;
31438;SDS011;18062;48.872;9.220;2022-12-31T14:34:45;0.37;;;0.30;;
31438;SDS011;18062;48.872;9.220;2022-12-31T14:37:25;1.50;;;1.27;;
31438;SDS011;18062;48.872;9.220;2022-12-31T14:50:46;0.80;;;0.60;;
31438;SDS011;18062;48.872;9.220;2022-12-31T14:53:25;0.40;;;0.40;;
31438;SDS011;18062;48.872;9.220;2022-12-31T14:58:41;0.80;;;0.80;;
31438;SDS011;18062;48.872;9.220;2022-12-31T15:01:29;1.23;;;0.67;;
31438;SDS011;18062;48.872;9.220;2022-12-31T15:03:54;0.90;;;0.70;;
31438;SDS011;18062;48.872;9.220;2022-12-31T15:11:35;0.40;;;0.40;;
31438;SDS011;18062;48.872;9.220;2022-12-31T15:21:42;0.40;;;0.40;;
31438;SDS011;18062;48.872;9.220;2022-12-31T15:24:15;0.30;;;0.30;;
31438;SDS011;18062;48.872;9.220;2022-12-31T15:26:46;0.40;;;0.40;;
31438;SDS011;18062;48.872;9.220;2022-12-31T15:31:55;0.33;;;0.33;;
31438;SDS011;18062;48.872;9.220;2022-12-31T15:36:53;0.40;;;0.40;;
31438;SDS011;18062;48.872;9.220;2022-12-31T15:39:35;0.40;;;0.40;;
31438;SDS011;18062;48.872;9.220;2022-12-31T15:42:01;0.40;;;0.40;;
31438;SDS011;18062;48.872;9.220;2022-12-31T15:44:29;0.60;;;0.60;;
31438;SDS011;18062;48.872;9.220;2022-12-31T15:47:01;0.87;;;0.60;;
31438;SDS011;18062;48.872;9.220;2022-12-31T15:49:29;1.30;;;0.77;;
31438;SDS011;18062;48.872;9.220;2022-12-31T15:52:04;1.20;;;0.90;;
31438;SDS011;18062;48.872;9.220;2022-12-31T15:54:44;1.13;;;1.07;;
31438;SDS011;18062;48.872;9.220;2022-12-31T15:57:14;1.07;;;0.90;;
31438;SDS011;18062;48.872;9.220;2022-12-31T15:59:41;0.80;;;0.80;;
31438;SDS011;18062;48.872;9.220;2022-12-31T16:02:19;1.47;;;0.80;;
31438;SDS011;18062;48.872;9.220;2022-12-31T16:04:46;1.27;;;1.00;;
31438;SDS011;18062;48.872;9.220;2022-12-31T16:07:13;1.10;;;1.00;;
31438;SDS011;18062;48.872;9.220;2022-12-31T16:09:39;1.27;;;1.17;;
31438;SDS011;18062;48.872;9.220;2022-12-31T16:12:09;1.87;;;1.43;;
31438;SDS011;18062;48.872;9.220;2022-12-31T16:14:37;3.10;;;2.10;;
31438;SDS011;18062;48.872;9.220;2022-12-31T16:17:04;1.93;;;1.37;;
31438;SDS011;18062;48.872;9.220;2022-12-31T16:19:41;1.10;;;1.00;;
31438;SDS011;18062;48.872;9.220;2022-12-31T16:22:12;1.27;;;0.97;;
31438;SDS011;18062;48.872;9.220;2022-12-31T16:24:39;1.47;;;1.23;;
31438;SDS011;18062;48.872;9.220;2022-12-31T16:27:06;3.87;;;3.43;;
31438;SDS011;18062;48.872;9.220;2022-12-31T16:29:33;4.50;;;3.80;;
31438;SDS011;18062;48.872;9.220;2022-12-31T16:32:00;3.50;;;3.03;;
31438;SDS011;18062;48.872;9.220;2022-12-31T16:34:27;8.33;;;6.00;;
31438;SDS011;18062;48.872;9.220;2022-12-31T16:37:00;26.10;;;13.60;;
31438;SDS011;18062;48.872;9.220;2022-12-31T16:39:28;66.87;;;33.23;;
31438;SDS011;18062;48.872;9.220;2022-12-31T16:44:32;186.17;;;82.93;;
31438;SDS011;18062;48.872;9.220;2022-12-31T16:46:59;39.47;;;19.87;;
31438;SDS011;18062;48.872;9.220;2022-12-31T16:49:26;42.23;;;19.17;;
31438;SDS011;18062;48.872;9.220;2022-12-31T16:51:53;19.87;;;8.47;;
31438;SDS011;18062;48.872;9.220;2022-12-31T16:54:36;12.27;;;6.63;;
31438;SDS011;18062;48.872;9.220;2022-12-31T16:57:03;13.43;;;5.90;;
31438;SDS011;18062;48.872;9.220;2022-12-31T16:59:34;7.70;;;4.27;;
31438;SDS011;18062;48.872;9.220;2022-12-31T17:02:02;8.37;;;3.33;;
31438;SDS011;18062;48.872;9.220;2022-12-31T17:04:28;3.83;;;2.77;;
31438;SDS011;18062;48.872;9.220;2022-12-31T17:07:12;6.23;;;2.57;;
31438;SDS011;18062;48.872;9.220;2022-12-31T17:09:41;1.37;;;1.27;;
31438;SDS011;18062;48.872;9.220;2022-12-31T17:12:08;5.87;;;3.23;;
31438;SDS011;18062;48.872;9.220;2022-12-31T17:14:46;2.17;;;1.93;;
31438;SDS011;18062;48.872;9.220;2022-12-31T17:17:13;2.53;;;2.33;;
31438;SDS011;18062;48.872;9.220;2022-12-31T17:19:44;5.90;;;3.60;;
31438;SDS011;18062;48.872;9.220;2022-12-31T17:22:25;4.97;;;3.17;;
31438;SDS011;18062;48.872;9.220;2022-12-31T17:24:56;3.43;;;2.77;;
31438;SDS011;18062;48.872;9.220;2022-12-31T17:27:23;7.27;;;4.10;;
31438;SDS011;18062;48.872;9.220;2022-12-31T17:29:49;7.10;;;5.00;;
31438;SDS011;18062;48.872;9.220;2022-12-31T17:32:27;7.20;;;5.00;;
31438;SDS011;18062;48.872;9.220;2022-12-31T17:34:54;4.50;;;3.33;;
31438;SDS011;18062;48.872;9.220;2022-12-31T17:37:29;2.10;;;1.90;;
31438;SDS011;18062;48.872;9.220;2022-12-31T17:39:56;2.90;;;1.97;;
31438;SDS011;18062;48.872;9.220;2022-12-31T17:44:53;2.80;;;1.20;;
31438;SDS011;18062;48.872;9.220;2022-12-31T17:47:20;0.90;;;0.90;;
31438;SDS011;18062;48.872;9.220;2022-12-31T17:49:46;1.43;;;1.33;;
31438;SDS011;18062;48.872;9.220;2022-12-31T17:52:12;2.03;;;1.70;;
31438;SDS011;18062;48.872;9.220;2022-12-31T17:54:39;1.10;;;1.00;;
31438;SDS011;18062;48.872;9.220;2022-12-31T17:57:05;4.33;;;2.33;;
31438;SDS011;18062;48.872;9.220;2022-12-31T17:59:31;2.07;;;1.30;;
31438;SDS011;18062;48.872;9.220;2022-12-31T18:02:03;1.40;;;1.20;;
31438;SDS011;18062;48.872;9.220;2022-12-31T18:04:29;1.37;;;1.20;;
31438;SDS011;18062;48.872;9.220;2022-12-31T18:06:55;1.80;;;1.10;;
31438;SDS011;18062;48.872;9.220;2022-12-31T18:09:21;1.23;;;1.13;;
31438;SDS011;18062;48.872;9.220;2022-12-31T18:11:47;1.97;;;0.97;;
31438;SDS011;18062;48.872;9.220;2022-12-31T18:14:14;1.77;;;1.30;;
31438;SDS011;18062;48.872;9.220;2022-12-31T18:16:40;1.60;;;1.50;;
31438;SDS011;18062;48.872;9.220;2022-12-31T18:19:09;2.27;;;1.53;;
31438;SDS011;18062;48.872;9.220;2022-12-31T18:21:37;1.97;;;1.40;;
31438;SDS011;18062;48.872;9.220;2022-12-31T18:24:03;1.60;;;1.07;;
31438;SDS011;18062;48.872;9.220;2022-12-31T18:26:29;2.10;;;1.63;;
31438;SDS011;18062;48.872;9.220;2022-12-31T18:29:00;1.70;;;1.60;;
31438;SDS011;18062;48.872;9.220;2022-12-31T18:31:27;3.63;;;2.20;;
31438;SDS011;18062;48.872;9.220;2022-12-31T18:33:56;2.70;;;1.60;;
31438;SDS011;18062;48.872;9.220;2022-12-31T18:36:22;2.87;;;1.63;;
31438;SDS011;18062;48.872;9.220;2022-12-31T18:38:49;3.10;;;1.90;;
31438;SDS011;18062;48.872;9.220;2022-12-31T18:41:22;2.30;;;1.60;;
31438;SDS011;18062;48.872;9.220;2022-12-31T18:43:50;1.80;;;1.30;;
31438;SDS011;18062;48.872;9.220;2022-12-31T18:46:17;1.60;;;1.50;;
31438;SDS011;18062;48.872;9.220;2022-12-31T18:48:43;1.37;;;1.20;;
31438;SDS011;18062;48.872;9.220;2022-12-31T18:51:13;1.93;;;1.27;;
31438;SDS011;18062;48.872;9.220;2022-12-31T18:53:40;1.53;;;1.20;;
31438;SDS011;18062;48.872;9.220;2022-12-31T18:56:08;3.30;;;1.53;;
31438;SDS011;18062;48.872;9.220;2022-12-31T18:58:35;3.27;;;1.80;;
31438;SDS011;18062;48.872;9.220;2022-12-31T19:01:01;2.47;;;1.87;;
31438;SDS011;18062;48.872;9.220;2022-12-31T19:03:27;1.37;;;1.23;;
31438;SDS011;18062;48.872;9.220;2022-12-31T19:05:54;1.57;;;1.17;;
31438;SDS011;18062;48.872;9.220;2022-12-31T19:08:21;1.47;;;1.10;;
31438;SDS011;18062;48.872;9.220;2022-12-31T19:10:47;1.30;;;1.20;;
31438;SDS011;18062;48.872;9.220;2022-12-31T19:13:15;1.40;;;1.30;;